createdAt,value
2023-05-21T00:02:00.257Z,12.16
2023-05-21T00:07:04.023Z,12.11
2023-05-21T00:12:08.921Z,12.11
2023-05-21T00:17:13.913Z,12.14
2023-05-21T00:22:17.559Z,12.09
2023-05-21T00:27:21.280Z,12.00
2023-05-21T00:32:26.369Z,11.95
2023-05-21T00:37:34.574Z,11.89
2023-05-21T00:42:40.042Z,11.93
2023-05-21T00:47:45.496Z,11.90
2023-05-21T00:52:49.402Z,11.88
2023-05-21T00:57:53.148Z,11.85
2023-05-21T01:02:58.233Z,11.91
2023-05-21T01:08:02.140Z,11.94
2023-05-21T01:13:05.790Z,11.96
2023-05-21T01:18:11.042Z,11.98
2023-05-21T01:23:17.156Z,11.95
2023-05-21T01:28:20.901Z,11.86
2023-05-21T01:33:30.535Z,11.87
2023-05-21T01:38:42.827Z,11.93
2023-05-21T01:43:48.223Z,11.83
2023-05-21T01:48:54.221Z,11.90
2023-05-21T01:53:59.371Z,11.94
2023-05-21T01:59:03.007Z,11.80
2023-05-21T02:04:07.025Z,11.98
2023-05-21T02:09:12.249Z,11.98
2023-05-21T02:14:15.862Z,11.97
2023-05-21T02:19:19.571Z,12.02
2023-05-21T02:24:24.653Z,12.01
2023-05-21T02:29:28.146Z,12.04
2023-05-21T02:34:33.237Z,12.04
2023-05-21T02:39:37.832Z,12.11
2023-05-21T02:44:41.304Z,12.09
2023-05-21T02:49:44.945Z,12.07
2023-05-21T02:54:49.968Z,12.08
2023-05-21T02:59:53.623Z,12.07
2023-05-21T03:04:57.138Z,12.04
2023-05-21T03:10:02.067Z,12.23
2023-05-21T03:15:08.851Z,12.51
2023-05-21T03:20:17.229Z,12.41
2023-05-21T03:25:25.331Z,12.65
2023-05-21T03:30:28.956Z,12.41
2023-05-21T03:35:32.533Z,12.73
2023-05-21T03:40:37.421Z,12.91
2023-05-21T03:45:43.552Z,12.80
2023-05-21T03:50:48.190Z,12.91
2023-05-21T03:55:55.463Z,12.91
2023-05-21T04:00:59.193Z,12.98
2023-05-21T04:06:02.836Z,13.20
2023-05-21T04:11:07.856Z,13.61
2023-05-21T04:16:14.788Z,13.71
2023-05-21T04:21:18.472Z,13.90
2023-05-21T04:26:23.913Z,14.06
2023-05-21T04:31:27.427Z,14.27
2023-05-21T04:36:30.996Z,14.90
2023-05-21T04:41:36.949Z,14.87
2023-05-21T04:46:41.787Z,14.88
2023-05-21T04:51:45.529Z,14.93
2023-05-21T04:56:50.685Z,14.81
2023-05-21T05:01:54.392Z,15.15
2023-05-21T05:06:57.882Z,15.57
2023-05-21T05:12:03.115Z,18.65
2023-05-21T05:17:08.422Z,17.78
2023-05-21T05:22:13.500Z,21.01
2023-05-21T05:27:19.244Z,25.59
2023-05-21T05:32:22.827Z,23.70
2023-05-21T05:37:26.388Z,22.88
2023-05-21T05:42:31.347Z,22.46
2023-05-21T05:47:35.001Z,21.31
2023-05-21T05:52:38.695Z,20.23
2023-05-21T05:57:45.119Z,18.98
2023-05-21T06:02:49.483Z,18.39
2023-05-21T06:07:53.171Z,19.47
2023-05-21T06:12:58.153Z,18.60
2023-05-21T06:18:01.752Z,18.39
2023-05-21T06:23:06.745Z,18.07
2023-05-21T06:28:11.753Z,17.73
2023-05-21T06:33:15.515Z,16.86
2023-05-21T06:38:19.199Z,16.38
2023-05-21T06:43:24.343Z,16.31
2023-05-21T06:48:27.848Z,16.44
2023-05-21T06:53:31.549Z,17.51
2023-05-21T06:58:36.698Z,23.38
2023-05-21T07:03:40.340Z,23.83
2023-05-21T07:08:43.928Z,23.74
2023-05-21T07:13:48.934Z,22.64
2023-05-21T07:18:52.459Z,20.69
2023-05-21T07:23:56.807Z,19.54
2023-05-21T07:29:01.436Z,18.56
2023-05-21T07:34:05.208Z,18.96
2023-05-21T07:39:08.824Z,19.79
2023-05-21T07:44:13.713Z,21.45
2023-05-21T07:49:17.690Z,21.19
2023-05-21T07:54:21.238Z,23.81
2023-05-21T07:59:26.520Z,25.45
2023-05-21T08:04:30.221Z,25.74
2023-05-21T08:09:33.745Z,25.40
2023-05-21T08:14:38.715Z,23.38
2023-05-21T08:19:42.182Z,22.93
2023-05-21T08:24:45.738Z,22.81
2023-05-21T08:29:51.008Z,23.50
2023-05-21T08:34:54.676Z,23.43
2023-05-21T08:39:58.203Z,23.09
2023-05-21T08:45:06.887Z,23.32
2023-05-21T08:50:12.218Z,21.94
2023-05-21T08:55:15.927Z,21.41
2023-05-21T09:00:21.343Z,20.55
2023-05-21T09:05:26.549Z,21.28
2023-05-21T09:10:37.034Z,21.56
2023-05-21T09:15:42.087Z,21.74
2023-05-21T09:20:45.986Z,21.36
2023-05-21T09:25:52.153Z,21.46
2023-05-21T09:30:57.053Z,21.44
2023-05-21T09:36:00.800Z,20.96
2023-05-21T09:41:06.704Z,21.15
2023-05-21T09:46:11.744Z,21.36
2023-05-21T09:51:17.155Z,21.29
2023-05-21T09:56:25.576Z,20.73
2023-05-21T10:01:33.925Z,20.63
2023-05-21T10:06:42.817Z,20.47
2023-05-21T10:11:46.740Z,19.98
2023-05-21T10:16:53.927Z,19.47
2023-05-21T10:21:58.165Z,20.05
2023-05-21T10:27:01.984Z,20.01
2023-05-21T10:32:08.105Z,20.48
2023-05-21T10:37:14.539Z,20.74
2023-05-21T10:42:23.076Z,20.53
2023-05-21T10:47:49.110Z,20.62
2023-05-21T10:53:03.550Z,20.68
2023-05-21T10:58:39.841Z,20.75
2023-05-21T11:03:45.242Z,21.15
2023-05-21T11:08:49.612Z,21.32
2023-05-21T11:13:53.232Z,20.51
2023-05-21T11:19:03.016Z,19.87
2023-05-21T11:24:08.892Z,19.24
2023-05-21T11:29:12.802Z,19.54
2023-05-21T11:34:22.046Z,19.71
2023-05-21T11:39:27.726Z,19.67
2023-05-21T11:44:40.665Z,19.69
2023-05-21T11:49:46.665Z,19.40
2023-05-21T11:54:55.700Z,18.76
2023-05-21T12:00:00.506Z,18.57
2023-05-21T12:05:06.544Z,18.50
2023-05-21T12:10:10.941Z,18.16
2023-05-21T12:15:14.976Z,17.78
2023-05-21T12:20:20.167Z,17.92
2023-05-21T12:25:23.882Z,18.62
2023-05-21T12:30:27.943Z,18.94
2023-05-21T12:35:33.326Z,18.60
2023-05-21T12:40:39.030Z,18.35
2023-05-21T12:45:44.806Z,18.36
2023-05-21T12:50:49.998Z,17.93
2023-05-21T12:55:56.489Z,17.61
2023-05-21T13:01:00.967Z,17.78
2023-05-21T13:06:08.556Z,18.02
2023-05-21T13:11:12.354Z,18.13
2023-05-21T13:16:16.584Z,18.12
2023-05-21T13:21:21.319Z,18.26
2023-05-21T13:26:24.764Z,18.07
2023-05-21T13:31:28.741Z,17.86
2023-05-21T13:36:33.757Z,18.16
2023-05-21T13:41:37.425Z,18.15
2023-05-21T13:46:41.051Z,18.17
2023-05-21T13:51:46.055Z,18.35
2023-05-21T13:56:49.594Z,18.21
2023-05-21T14:01:53.292Z,18.04
2023-05-21T14:06:58.329Z,17.93
2023-05-21T14:12:01.858Z,17.51
2023-05-21T14:17:05.589Z,17.46
2023-05-21T14:22:10.532Z,17.54
2023-05-21T14:27:15.423Z,17.47
2023-05-21T14:32:19.480Z,17.53
2023-05-21T14:37:24.609Z,17.71
2023-05-21T14:42:28.141Z,18.13
2023-05-21T14:47:31.780Z,18.18
2023-05-21T14:52:36.903Z,18.14
2023-05-21T14:57:40.518Z,18.37
2023-05-21T15:02:44.085Z,18.51
2023-05-21T15:07:49.183Z,18.35
2023-05-21T15:12:53.025Z,17.70
2023-05-21T15:17:57.850Z,17.42
2023-05-21T15:28:09.436Z,17.00
2023-05-21T15:33:13.135Z,16.95
2023-05-21T15:38:18.149Z,16.62
2023-05-21T15:43:21.853Z,16.63
2023-05-21T15:48:25.509Z,16.69
2023-05-21T15:53:30.467Z,17.01
2023-05-21T15:58:34.075Z,17.09
2023-05-21T16:03:37.778Z,17.22
2023-05-21T16:08:43.104Z,17.42
2023-05-21T16:13:46.645Z,17.48
2023-05-21T16:18:50.262Z,17.50
2023-05-21T16:23:55.396Z,17.61
2023-05-21T16:28:58.941Z,17.68
2023-05-21T16:34:02.449Z,17.71
2023-05-21T16:39:07.466Z,17.64
2023-05-21T16:44:11.043Z,17.52
2023-05-21T16:49:14.745Z,17.29
2023-05-21T16:54:19.687Z,17.31
2023-05-21T16:59:23.232Z,17.31
2023-05-21T17:04:26.709Z,17.35
2023-05-21T17:09:31.677Z,17.27
2023-05-21T17:14:37.730Z,17.05
2023-05-21T17:19:44.498Z,16.81
2023-05-21T17:24:49.917Z,16.58
2023-05-21T17:29:53.491Z,16.46
2023-05-21T17:34:56.989Z,16.34
2023-05-21T17:40:02.072Z,16.27
2023-05-21T17:45:08.065Z,16.22
2023-05-21T17:50:11.967Z,16.12
2023-05-21T17:55:17.180Z,15.98
2023-05-21T18:00:21.529Z,15.79
2023-05-21T18:05:25.199Z,15.76
2023-05-21T18:10:30.167Z,15.77
2023-05-21T18:15:34.561Z,15.69
2023-05-21T18:20:38.352Z,15.59
2023-05-21T18:25:43.557Z,15.49
2023-05-21T18:30:47.261Z,15.42
2023-05-21T18:35:50.756Z,15.35
2023-05-21T18:40:55.876Z,15.37
2023-05-21T18:46:00.890Z,15.34
2023-05-21T18:51:04.664Z,15.26
2023-05-21T18:56:10.425Z,15.16
2023-05-21T19:01:14.041Z,15.05
2023-05-21T19:06:17.633Z,14.95
2023-05-21T19:11:23.765Z,14.83
2023-05-21T19:16:27.614Z,14.69
2023-05-21T19:21:31.577Z,14.65
2023-05-21T19:26:36.644Z,14.52
2023-05-21T19:31:40.517Z,14.25
2023-05-21T19:36:52.880Z,13.89
2023-05-21T19:41:58.647Z,13.66
2023-05-21T19:47:03.032Z,13.36
2023-05-21T19:52:07.324Z,13.19
2023-05-21T19:57:13.435Z,13.04
2023-05-21T20:02:19.276Z,12.94
2023-05-21T20:07:22.839Z,12.89
2023-05-21T20:12:27.830Z,12.79
2023-05-21T20:17:34.366Z,12.63
2023-05-21T20:22:38.128Z,12.28
2023-05-21T20:27:43.160Z,12.14
2023-05-21T20:32:46.820Z,11.90
2023-05-21T20:37:50.462Z,11.95
2023-05-21T20:42:55.361Z,11.89
2023-05-21T20:48:01.466Z,11.76
2023-05-21T20:53:05.243Z,11.73
2023-05-21T20:58:10.349Z,11.66
2023-05-21T21:03:13.920Z,11.57
2023-05-21T21:08:17.524Z,11.50
2023-05-21T21:13:22.470Z,11.43
2023-05-21T21:18:25.982Z,11.35
2023-05-21T21:23:30.295Z,11.30
2023-05-21T21:28:35.279Z,11.18
2023-05-21T21:33:38.894Z,11.04
2023-05-21T21:38:42.548Z,10.86
2023-05-21T21:43:47.809Z,10.63
2023-05-21T21:48:51.401Z,10.58
2023-05-21T21:53:55.042Z,10.37
2023-05-21T21:58:59.972Z,10.43
2023-05-21T22:04:03.542Z,10.37
2023-05-21T22:09:07.723Z,10.35
2023-05-21T22:14:12.928Z,10.38
2023-05-21T22:19:20.651Z,10.41
2023-05-21T22:24:32.044Z,10.29
2023-05-21T22:29:38.402Z,10.36
2023-05-21T22:34:42.030Z,10.36
2023-05-21T22:39:45.521Z,10.34
2023-05-21T22:44:50.809Z,10.37
2023-05-21T22:49:54.474Z,10.29
2023-05-21T22:55:00.764Z,10.27
2023-05-21T23:00:07.666Z,10.32
2023-05-21T23:05:11.454Z,10.31
2023-05-21T23:10:14.984Z,10.27
2023-05-21T23:15:20.063Z,10.21
2023-05-21T23:20:24.790Z,10.18
2023-05-21T23:25:28.261Z,10.13
2023-05-21T23:30:33.319Z,10.04
2023-05-21T23:35:37.114Z,10.06
2023-05-21T23:40:40.788Z,10.06
2023-05-21T23:45:46.089Z,10.08
2023-05-21T23:50:49.795Z,10.07
2023-05-21T23:55:53.528Z,9.98
